createdAt,value
2022-10-17T00:02:11.795Z,14.80
2022-10-17T00:06:14.833Z,14.70
2022-10-17T00:10:16.893Z,15.10
2022-10-17T00:14:18.795Z,15.00
2022-10-17T00:18:20.816Z,13.30
2022-10-17T00:22:22.649Z,16.00
2022-10-17T00:26:24.604Z,13.70
2022-10-17T00:30:26.689Z,14.50
2022-10-17T00:34:30.499Z,14.80
2022-10-17T00:38:32.353Z,13.70
2022-10-17T00:42:35.034Z,13.90
2022-10-17T00:46:38.550Z,13.50
2022-10-17T00:50:47.602Z,13.60
2022-10-17T00:54:55.467Z,13.90
2022-10-17T00:58:57.612Z,14.40
2022-10-17T01:03:00.052Z,14.80
2022-10-17T01:07:01.892Z,13.10
2022-10-17T01:11:06.715Z,12.60
2022-10-17T01:15:13.335Z,14.30
2022-10-17T01:19:37.099Z,14.90
2022-10-17T01:24:02.160Z,15.00
2022-10-17T01:28:18.241Z,14.00
2022-10-17T01:32:29.041Z,12.20
2022-10-17T01:36:43.777Z,13.50
2022-10-17T01:41:10.535Z,12.70
2022-10-17T01:45:18.769Z,14.50
2022-10-17T01:49:24.325Z,13.50
2022-10-17T01:53:33.378Z,14.10
2022-10-17T01:57:44.702Z,13.60
2022-10-17T02:01:49.085Z,13.40
2022-10-17T02:05:51.269Z,13.70
2022-10-17T02:09:53.128Z,15.10
2022-10-17T02:14:22.653Z,14.20
2022-10-17T02:22:56.469Z,14.80
2022-10-17T02:27:16.561Z,14.70
2022-10-17T02:31:31.179Z,13.90
2022-10-17T02:35:38.175Z,13.50
2022-10-17T02:39:42.502Z,12.90
2022-10-17T02:43:49.667Z,13.20
2022-10-17T02:48:26.334Z,13.80
2022-10-17T02:52:34.436Z,15.10
2022-10-17T02:56:46.075Z,16.70
2022-10-17T03:00:48.749Z,14.70
2022-10-17T03:04:50.773Z,17.10
2022-10-17T03:08:52.614Z,14.90
2022-10-17T03:12:55.509Z,15.80
2022-10-17T03:16:58.507Z,14.10
2022-10-17T03:21:01.244Z,15.10
2022-10-17T03:25:03.478Z,17.00
2022-10-17T03:29:05.503Z,14.90
2022-10-17T03:33:07.774Z,15.00
2022-10-17T03:37:09.785Z,13.90
2022-10-17T03:41:12.497Z,13.70
2022-10-17T03:45:14.605Z,14.40
2022-10-17T03:49:16.981Z,15.10
2022-10-17T03:53:19.276Z,14.70
2022-10-17T03:57:21.255Z,12.90
2022-10-17T04:01:23.702Z,12.90
2022-10-17T04:05:25.912Z,13.70
2022-10-17T04:09:28.526Z,15.00
2022-10-17T04:13:56.231Z,14.60
2022-10-17T04:17:58.523Z,14.50
2022-10-17T04:22:02.640Z,13.50
2022-10-17T04:26:06.546Z,14.60
2022-10-17T04:30:09.479Z,15.40
2022-10-17T04:34:13.692Z,14.40
2022-10-17T04:38:15.800Z,16.00
2022-10-17T04:42:18.940Z,15.70
2022-10-17T04:46:21.388Z,15.10
2022-10-17T04:50:23.705Z,15.00
2022-10-17T04:54:45.160Z,14.50
2022-10-17T04:58:48.733Z,15.30
2022-10-17T05:02:50.912Z,18.80
2022-10-17T05:06:52.843Z,20.50
2022-10-17T05:11:25.629Z,16.30
2022-10-17T05:15:28.065Z,14.50
2022-10-17T05:19:30.365Z,14.90
2022-10-17T05:23:32.435Z,15.60
2022-10-17T05:27:34.716Z,15.90
2022-10-17T05:31:36.647Z,17.70
2022-10-17T05:35:38.944Z,15.00
2022-10-17T05:39:41.207Z,15.10
2022-10-17T05:43:44.759Z,15.90
2022-10-17T05:47:48.049Z,15.40
2022-10-17T05:51:51.437Z,15.30
2022-10-17T05:56:01.546Z,16.90
2022-10-17T06:00:05.591Z,15.90
2022-10-17T06:04:16.812Z,16.60
2022-10-17T06:08:19.044Z,18.40
2022-10-17T06:12:21.245Z,17.30
2022-10-17T06:16:24.020Z,17.60
2022-10-17T06:20:26.069Z,18.50
2022-10-17T06:24:28.260Z,17.70
2022-10-17T06:28:30.449Z,17.50
2022-10-17T06:32:33.073Z,17.60
2022-10-17T06:36:35.009Z,17.30
2022-10-17T06:40:36.904Z,18.50
2022-10-17T06:44:39.997Z,19.90
2022-10-17T06:49:05.810Z,18.40
2022-10-17T06:53:17.888Z,18.50
2022-10-17T06:57:25.833Z,18.30
2022-10-17T07:01:54.867Z,18.10
2022-10-17T07:06:00.168Z,16.00
2022-10-17T07:10:03.963Z,17.50
2022-10-17T07:14:06.241Z,16.30
2022-10-17T07:18:08.644Z,16.70
2022-10-17T07:22:11.367Z,17.10
2022-10-17T07:26:17.668Z,16.30
2022-10-17T07:30:21.319Z,16.50
2022-10-17T07:34:30.887Z,15.90
2022-10-17T07:38:33.391Z,16.00
2022-10-17T07:46:42.109Z,15.90
2022-10-17T07:50:44.392Z,16.40
2022-10-17T07:54:46.274Z,14.70
2022-10-17T07:58:48.236Z,15.20
2022-10-17T08:02:50.236Z,15.70
2022-10-17T08:06:56.380Z,16.20
2022-10-17T08:11:06.184Z,15.00
2022-10-17T08:15:09.737Z,14.70
2022-10-17T08:19:12.563Z,14.10
2022-10-17T08:23:14.416Z,14.80
2022-10-17T08:27:20.993Z,14.80
2022-10-17T08:31:23.107Z,14.70
2022-10-17T08:35:25.067Z,14.70
2022-10-17T08:39:27.045Z,14.50
2022-10-17T08:43:57.192Z,14.80
2022-10-17T08:48:02.008Z,14.10
2022-10-17T08:52:22.656Z,13.70
2022-10-17T08:56:47.566Z,13.90
2022-10-17T09:01:11.970Z,13.90
2022-10-17T09:05:26.473Z,13.40
2022-10-17T09:09:45.231Z,15.10
2022-10-17T09:13:49.706Z,13.60
2022-10-17T09:18:08.321Z,14.70
2022-10-17T09:22:16.850Z,13.50
2022-10-17T09:26:18.885Z,14.20
2022-10-17T09:30:40.139Z,13.70
2022-10-17T09:34:43.263Z,13.40
2022-10-17T09:38:52.369Z,13.20
2022-10-17T09:42:54.618Z,14.20
2022-10-17T09:47:14.907Z,13.30
2022-10-17T09:51:25.591Z,13.30
2022-10-17T09:55:39.864Z,14.20
2022-10-17T10:00:04.301Z,13.20
2022-10-17T10:04:17.265Z,13.90
2022-10-17T10:08:19.527Z,12.80
2022-10-17T10:12:32.378Z,13.10
2022-10-17T10:16:42.950Z,13.50
2022-10-17T10:20:46.425Z,13.90
2022-10-17T10:25:13.156Z,14.50
2022-10-17T10:29:35.835Z,13.80
2022-10-17T10:33:45.884Z,12.00
2022-10-17T10:37:55.715Z,13.20
2022-10-17T10:41:58.077Z,12.50
2022-10-17T10:46:00.406Z,14.00
2022-10-17T10:50:17.277Z,12.80
2022-10-17T10:54:25.980Z,12.40
2022-10-17T10:58:42.151Z,12.40
2022-10-17T11:03:11.960Z,12.50
2022-10-17T11:07:33.291Z,11.70
2022-10-17T11:11:40.204Z,11.90
2022-10-17T11:15:52.911Z,12.20
2022-10-17T11:19:55.919Z,13.80
2022-10-17T11:24:27.688Z,12.00
2022-10-17T11:28:30.606Z,12.30
2022-10-17T11:32:45.796Z,12.10
2022-10-17T11:36:52.601Z,11.40
2022-10-17T11:40:58.590Z,12.00
2022-10-17T11:45:13.890Z,12.70
2022-10-17T11:49:23.599Z,13.00
2022-10-17T11:53:29.888Z,11.40
2022-10-17T11:57:50.236Z,12.00
2022-10-17T12:02:04.154Z,11.60
2022-10-17T12:06:30.933Z,12.10
2022-10-17T12:10:45.206Z,12.40
2022-10-17T12:14:47.350Z,12.00
2022-10-17T12:19:24.249Z,11.10
2022-10-17T12:23:31.400Z,11.50
2022-10-17T12:27:45.600Z,11.70
2022-10-17T12:31:47.615Z,11.30
2022-10-17T12:35:51.340Z,11.20
2022-10-17T12:39:53.397Z,10.40
2022-10-17T12:43:55.374Z,12.30
2022-10-17T12:47:57.228Z,11.00
2022-10-17T12:52:25.339Z,11.50
2022-10-17T12:56:47.355Z,11.70
2022-10-17T13:01:23.813Z,11.10
2022-10-17T13:05:33.665Z,10.80
2022-10-17T13:09:44.212Z,10.10
2022-10-17T13:13:48.852Z,10.40
2022-10-17T13:17:59.935Z,10.10
2022-10-17T13:22:07.255Z,10.50
2022-10-17T13:26:22.243Z,9.90
2022-10-17T13:30:29.304Z,9.40
2022-10-17T13:34:33.935Z,9.60
2022-10-17T13:38:38.965Z,10.60
2022-10-17T13:42:44.360Z,9.90
2022-10-17T13:46:46.831Z,9.50
2022-10-17T13:50:52.644Z,10.00
2022-10-17T13:54:55.453Z,11.20
2022-10-17T13:59:04.437Z,9.60
2022-10-17T14:03:06.344Z,10.30
2022-10-17T14:07:23.897Z,10.30
2022-10-17T14:11:39.914Z,10.00
2022-10-17T14:15:45.981Z,9.40
2022-10-17T14:20:14.175Z,10.20
2022-10-17T14:24:23.181Z,9.40
2022-10-17T14:28:25.125Z,10.90
2022-10-17T14:32:30.545Z,12.40
2022-10-17T14:36:43.626Z,13.30
2022-10-17T14:41:04.847Z,13.40
2022-10-17T14:45:25.214Z,13.50
2022-10-17T14:49:37.632Z,12.30
2022-10-17T14:53:40.443Z,12.80
2022-10-17T14:57:45.944Z,14.80
2022-10-17T15:01:48.988Z,13.70
2022-10-17T15:05:52.759Z,14.60
2022-10-17T15:09:54.756Z,14.80
2022-10-17T15:13:56.821Z,13.70
2022-10-17T15:17:59.507Z,13.70
2022-10-17T15:22:01.400Z,12.40
2022-10-17T15:26:03.522Z,10.30
2022-10-17T15:30:21.959Z,11.40
2022-10-17T15:34:23.981Z,9.60
2022-10-17T15:38:25.908Z,10.60
2022-10-17T15:42:29.966Z,10.30
2022-10-17T15:46:35.903Z,11.40
2022-10-17T15:50:37.812Z,10.30
2022-10-17T15:54:40.379Z,10.20
2022-10-17T15:58:42.288Z,11.00
2022-10-17T16:02:45.137Z,11.40
2022-10-17T16:06:47.111Z,12.40
2022-10-17T16:10:49.866Z,12.70
2022-10-17T16:14:51.679Z,13.00
2022-10-17T16:18:54.183Z,12.80
2022-10-17T16:22:59.427Z,11.20
2022-10-17T16:27:01.260Z,11.10
2022-10-17T16:31:03.205Z,11.50
2022-10-17T16:35:07.016Z,12.00
2022-10-17T16:39:08.934Z,11.40
2022-10-17T16:43:12.776Z,12.10
2022-10-17T16:47:15.269Z,11.20
2022-10-17T16:51:18.771Z,12.10
2022-10-17T16:55:20.982Z,13.80
2022-10-17T16:59:24.765Z,15.60
2022-10-17T17:03:26.759Z,14.50
2022-10-17T17:07:29.369Z,13.50
2022-10-17T17:11:32.316Z,12.70
2022-10-17T17:15:34.310Z,13.90
2022-10-17T17:19:36.229Z,12.50
2022-10-17T17:23:40.808Z,12.50
2022-10-17T17:27:42.822Z,12.80
2022-10-17T17:31:44.760Z,12.00
2022-10-17T17:35:47.019Z,12.70
2022-10-17T17:39:48.844Z,14.10
2022-10-17T17:43:51.524Z,12.20
2022-10-17T17:47:54.867Z,12.00
2022-10-17T17:51:56.946Z,12.20
2022-10-17T17:56:07.717Z,12.90
2022-10-17T18:00:10.358Z,13.60
2022-10-17T18:04:12.867Z,12.80
2022-10-17T18:08:14.717Z,13.30
2022-10-17T18:12:16.564Z,13.30
2022-10-17T18:16:18.477Z,14.30
2022-10-17T18:20:24.476Z,14.60
2022-10-17T18:24:26.292Z,12.90
2022-10-17T18:28:29.159Z,13.40
2022-10-17T18:32:32.868Z,12.90
2022-10-17T18:36:35.355Z,13.80
2022-10-17T18:40:39.987Z,15.00
2022-10-17T18:44:41.872Z,16.10
2022-10-17T18:48:45.431Z,16.10
2022-10-17T18:52:48.407Z,15.30
2022-10-17T18:56:53.688Z,15.30
2022-10-17T19:01:02.685Z,15.50
2022-10-17T19:05:04.863Z,15.90
2022-10-17T19:09:09.600Z,14.10
2022-10-17T19:13:11.452Z,14.90
2022-10-17T19:17:13.272Z,14.10
2022-10-17T19:21:19.197Z,14.20
2022-10-17T19:29:27.519Z,13.90
2022-10-17T19:33:31.710Z,14.20
2022-10-17T19:37:33.922Z,13.70
2022-10-17T19:41:36.121Z,14.00
2022-10-17T19:45:37.983Z,14.20
2022-10-17T19:49:39.880Z,14.70
2022-10-17T19:53:42.491Z,15.90
2022-10-17T19:57:44.281Z,14.10
2022-10-17T20:01:46.438Z,13.90
2022-10-17T20:05:48.520Z,15.50
2022-10-17T20:09:50.408Z,14.50
2022-10-17T20:13:53.467Z,14.60
2022-10-17T20:17:56.253Z,15.40
2022-10-17T20:21:58.161Z,14.50
2022-10-17T20:26:08.630Z,14.90
2022-10-17T20:30:21.363Z,14.80
2022-10-17T20:34:23.525Z,16.70
2022-10-17T20:38:25.416Z,14.60
2022-10-17T20:42:28.373Z,15.30
2022-10-17T20:46:36.812Z,15.40
2022-10-17T20:50:39.802Z,15.40
2022-10-17T20:54:41.736Z,16.10
2022-10-17T20:58:43.885Z,16.50
2022-10-17T21:02:46.020Z,13.90
2022-10-17T21:06:48.738Z,15.70
2022-10-17T21:10:50.636Z,14.60
2022-10-17T21:14:52.493Z,14.90
2022-10-17T21:18:55.460Z,14.90
2022-10-17T21:23:00.042Z,15.00
2022-10-17T21:27:01.919Z,14.10
2022-10-17T21:31:14.131Z,14.20
2022-10-17T21:35:16.493Z,15.20
2022-10-17T21:39:18.859Z,16.60
2022-10-17T21:43:21.119Z,16.00
2022-10-17T21:47:25.548Z,15.30
2022-10-17T21:51:29.625Z,14.80
2022-10-17T21:55:31.759Z,15.20
2022-10-17T21:59:35.120Z,15.60
2022-10-17T22:03:42.711Z,16.20
2022-10-17T22:07:47.904Z,15.10
2022-10-17T22:11:54.104Z,15.50
2022-10-17T22:16:10.083Z,14.00
2022-10-17T22:20:11.984Z,16.30
2022-10-17T22:24:15.757Z,15.50
2022-10-17T22:28:17.948Z,14.80
2022-10-17T22:32:22.555Z,16.00
2022-10-17T22:36:24.649Z,15.20
2022-10-17T22:40:26.526Z,17.00
2022-10-17T22:44:28.343Z,14.80
2022-10-17T22:48:30.306Z,16.50
2022-10-17T22:52:32.406Z,15.60
2022-10-17T22:56:34.528Z,15.20
2022-10-17T23:00:38.494Z,16.40
2022-10-17T23:04:41.308Z,16.00
2022-10-17T23:08:43.617Z,18.30
2022-10-17T23:12:45.441Z,16.90
2022-10-17T23:16:47.284Z,15.20
2022-10-17T23:20:49.400Z,13.90
2022-10-17T23:24:51.566Z,17.30
2022-10-17T23:28:54.341Z,17.60
2022-10-17T23:32:56.271Z,16.90
2022-10-17T23:36:58.365Z,14.90
2022-10-17T23:41:00.357Z,15.00
2022-10-17T23:45:03.382Z,15.30
2022-10-17T23:49:06.100Z,16.10
2022-10-17T23:53:08.128Z,15.60
2022-10-17T23:57:10.216Z,16.40
